createdAt,value
2017-10-27T00:01:14.990Z,101509
2017-10-27T00:03:43.076Z,101514
2017-10-27T00:06:11.179Z,101514
2017-10-27T00:08:40.084Z,101516
2017-10-27T00:11:08.161Z,101517
2017-10-27T00:13:36.267Z,101516
2017-10-27T00:16:04.353Z,101511
2017-10-27T00:18:32.436Z,101514
2017-10-27T00:21:00.548Z,101517
2017-10-27T00:23:28.899Z,101520
2017-10-27T00:25:57.786Z,101527
2017-10-27T00:28:26.643Z,101522
2017-10-27T00:30:54.879Z,101524
2017-10-27T00:33:22.980Z,101523
2017-10-27T00:35:51.083Z,101518
2017-10-27T00:38:19.164Z,101516
2017-10-27T00:40:47.267Z,101520
2017-10-27T00:43:15.592Z,101535
2017-10-27T00:45:43.675Z,101524
2017-10-27T00:48:12.284Z,101519
2017-10-27T00:50:41.148Z,101523
2017-10-27T00:53:09.715Z,101527
2017-10-27T00:55:37.826Z,101523
2017-10-27T00:58:06.672Z,101525
2017-10-27T01:00:35.285Z,101526
2017-10-27T01:03:03.368Z,101529
2017-10-27T01:05:32.235Z,101518
2017-10-27T01:08:00.336Z,101521
2017-10-27T01:10:29.195Z,101520
2017-10-27T01:12:57.293Z,101518
2017-10-27T01:15:25.403Z,101521
2017-10-27T01:17:53.508Z,101528
2017-10-27T01:20:21.599Z,101520
2017-10-27T01:22:49.904Z,101510
2017-10-27T01:25:18.743Z,101515
2017-10-27T01:27:46.846Z,101515
2017-10-27T01:30:14.950Z,101515
2017-10-27T01:32:43.035Z,101511
2017-10-27T01:35:11.136Z,101507
2017-10-27T01:37:39.413Z,101508
2017-10-27T01:40:07.608Z,101502
2017-10-27T01:42:36.133Z,101501
2017-10-27T01:45:04.212Z,101499
2017-10-27T01:47:32.305Z,101494
2017-10-27T01:50:00.423Z,101492
2017-10-27T01:52:28.981Z,101484
2017-10-27T01:54:57.093Z,101493
2017-10-27T01:57:25.548Z,101483
2017-10-27T01:59:53.624Z,101478
2017-10-27T02:02:22.976Z,101488
2017-10-27T02:04:51.078Z,101479
2017-10-27T02:07:19.159Z,101488
2017-10-27T02:09:47.255Z,101486
2017-10-27T02:12:15.376Z,101484
2017-10-27T02:14:43.468Z,101478
2017-10-27T02:17:11.584Z,101486
2017-10-27T02:19:39.674Z,101483
2017-10-27T02:22:07.808Z,101487
2017-10-27T02:24:35.913Z,101491
2017-10-27T02:27:04.004Z,101493
2017-10-27T02:29:32.105Z,101484
2017-10-27T02:32:00.398Z,101491
2017-10-27T02:34:29.255Z,101481
2017-10-27T02:36:57.363Z,101486
2017-10-27T02:39:26.219Z,101483
2017-10-27T02:41:54.472Z,101489
2017-10-27T02:44:22.565Z,101488
2017-10-27T02:46:50.869Z,101481
2017-10-27T02:49:18.951Z,101479
2017-10-27T02:51:47.069Z,101480
2017-10-27T02:54:15.167Z,101478
2017-10-27T02:56:43.315Z,101485
2017-10-27T02:59:11.772Z,101492
2017-10-27T03:01:39.856Z,101484
2017-10-27T03:04:07.951Z,101488
2017-10-27T03:06:36.054Z,101497
2017-10-27T03:09:04.155Z,101491
2017-10-27T03:11:32.263Z,101490
2017-10-27T03:14:00.364Z,101494
2017-10-27T03:16:28.484Z,101491
2017-10-27T03:18:56.637Z,101499
2017-10-27T03:21:24.747Z,101495
2017-10-27T03:23:52.859Z,101503
2017-10-27T03:26:20.939Z,101506
2017-10-27T03:28:49.040Z,101506
2017-10-27T03:31:17.124Z,101504
2017-10-27T03:33:45.245Z,101501
2017-10-27T03:36:13.338Z,101501
2017-10-27T03:38:42.404Z,101512
2017-10-27T03:41:10.506Z,101522
2017-10-27T03:43:38.609Z,101525
2017-10-27T03:46:06.717Z,101516
2017-10-27T03:48:34.808Z,101516
2017-10-27T03:51:02.924Z,101521
2017-10-27T03:53:31.012Z,101504
2017-10-27T03:55:59.141Z,101505
2017-10-27T03:58:28.320Z,101511
2017-10-27T04:00:56.467Z,101516
2017-10-27T04:03:24.976Z,101519
2017-10-27T04:05:53.232Z,101516
2017-10-27T04:08:21.353Z,101517
2017-10-27T04:10:49.453Z,101525
2017-10-27T04:13:17.537Z,101519
2017-10-27T04:15:46.644Z,101520
2017-10-27T04:18:14.727Z,101526
2017-10-27T04:20:42.839Z,101531
2017-10-27T04:23:10.941Z,101538
2017-10-27T04:25:39.021Z,101546
2017-10-27T04:28:07.171Z,101542
2017-10-27T04:30:35.292Z,101547
2017-10-27T04:33:03.426Z,101547
2017-10-27T04:35:31.503Z,101531
2017-10-27T04:37:59.647Z,101543
2017-10-27T04:40:27.760Z,101542
2017-10-27T04:42:55.857Z,101551
2017-10-27T04:45:24.164Z,101548
2017-10-27T04:47:52.276Z,101555
2017-10-27T04:50:20.393Z,101552
2017-10-27T04:52:48.479Z,101558
2017-10-27T04:55:16.806Z,101562
2017-10-27T04:57:44.897Z,101559
2017-10-27T05:00:12.999Z,101568
2017-10-27T05:02:41.116Z,101567
2017-10-27T05:05:09.221Z,101569
2017-10-27T05:07:37.323Z,101565
2017-10-27T05:10:06.172Z,101572
2017-10-27T05:12:34.287Z,101577
2017-10-27T05:15:02.364Z,101582
2017-10-27T05:17:36.988Z,101578
2017-10-27T05:20:10.559Z,101586
2017-10-27T05:22:44.101Z,101586
2017-10-27T05:25:12.645Z,101585
2017-10-27T05:27:41.847Z,101626
2017-10-27T05:30:09.957Z,101587
2017-10-27T05:32:38.072Z,101588
2017-10-27T05:35:06.164Z,101591
2017-10-27T05:37:34.293Z,101575
2017-10-27T05:40:02.399Z,101581
2017-10-27T05:42:30.499Z,101604
2017-10-27T05:44:58.592Z,101601
2017-10-27T05:47:26.693Z,101613
2017-10-27T05:49:55.060Z,101613
2017-10-27T05:52:23.174Z,101619
2017-10-27T05:54:51.265Z,101612
2017-10-27T05:57:20.136Z,101622
2017-10-27T05:59:48.245Z,101621
2017-10-27T06:02:16.325Z,101630
2017-10-27T06:04:44.428Z,101635
2017-10-27T06:07:12.521Z,101638
2017-10-27T06:09:40.881Z,101644
2017-10-27T06:12:10.015Z,101652
2017-10-27T06:14:39.079Z,101652
2017-10-27T06:17:07.191Z,101647
2017-10-27T06:19:35.289Z,101664
2017-10-27T06:22:03.406Z,101652
2017-10-27T06:24:31.499Z,101665
2017-10-27T06:27:00.376Z,101665
2017-10-27T06:29:28.471Z,101661
2017-10-27T06:31:57.323Z,101664
2017-10-27T06:34:25.432Z,101671
2017-10-27T06:36:54.292Z,101668
2017-10-27T06:39:22.368Z,101682
2017-10-27T06:41:50.472Z,101692
2017-10-27T06:44:18.590Z,101707
2017-10-27T06:46:46.685Z,101699
2017-10-27T06:49:14.764Z,101700
2017-10-27T06:51:43.274Z,101708
2017-10-27T06:54:13.338Z,101705
2017-10-27T06:56:41.429Z,101716
2017-10-27T06:59:09.536Z,101722
2017-10-27T07:01:37.628Z,101715
2017-10-27T07:04:05.710Z,101713
2017-10-27T07:06:33.839Z,101727
2017-10-27T07:09:01.941Z,101727
2017-10-27T07:11:30.131Z,101738
2017-10-27T07:13:59.043Z,101751
2017-10-27T07:16:27.824Z,101757
2017-10-27T07:18:55.923Z,101754
2017-10-27T07:21:24.004Z,101759
2017-10-27T07:23:52.116Z,101757
2017-10-27T07:26:20.199Z,101754
2017-10-27T07:28:48.297Z,101756
2017-10-27T07:31:16.456Z,101762
2017-10-27T07:33:44.531Z,101772
2017-10-27T07:36:12.632Z,101777
2017-10-27T07:38:40.718Z,101775
2017-10-27T07:41:09.672Z,101786
2017-10-27T07:43:37.750Z,101790
2017-10-27T07:46:05.867Z,101788
2017-10-27T07:48:34.686Z,101793
2017-10-27T07:51:03.546Z,101798
2017-10-27T07:53:33.229Z,101802
2017-10-27T07:56:01.547Z,101810
2017-10-27T07:58:29.697Z,101809
2017-10-27T08:00:58.553Z,101802
2017-10-27T08:03:26.642Z,101811
2017-10-27T08:05:54.744Z,101828
2017-10-27T08:08:23.627Z,101839
2017-10-27T08:10:52.507Z,101840
2017-10-27T08:13:20.608Z,101838
2017-10-27T08:15:48.696Z,101841
2017-10-27T08:18:16.795Z,101839
2017-10-27T08:20:44.916Z,101844
2017-10-27T08:23:15.005Z,101844
2017-10-27T08:25:43.120Z,101848
2017-10-27T08:28:11.303Z,101855
2017-10-27T08:30:39.391Z,101854
2017-10-27T08:33:07.550Z,101850
2017-10-27T08:35:35.656Z,101858
2017-10-27T08:38:03.751Z,101852
2017-10-27T08:40:32.177Z,101862
2017-10-27T08:43:00.262Z,101859
2017-10-27T08:45:28.481Z,101871
2017-10-27T08:47:56.572Z,101875
2017-10-27T08:50:25.528Z,101885
2017-10-27T08:52:53.692Z,101887
2017-10-27T08:55:22.387Z,101893
2017-10-27T08:57:50.483Z,101893
2017-10-27T09:00:18.555Z,101897
2017-10-27T09:02:47.455Z,101899
2017-10-27T09:05:16.301Z,101898
2017-10-27T09:07:44.436Z,101911
2017-10-27T09:10:12.580Z,101899
2017-10-27T09:12:40.666Z,101905
2017-10-27T09:15:08.776Z,101901
2017-10-27T09:17:36.897Z,101901
2017-10-27T09:20:04.996Z,101912
2017-10-27T09:22:33.300Z,101917
2017-10-27T09:25:02.292Z,101920
2017-10-27T09:27:30.492Z,101925
2017-10-27T09:29:58.660Z,101931
2017-10-27T09:32:26.844Z,101934
2017-10-27T09:34:55.056Z,101948
2017-10-27T09:37:23.174Z,101950
2017-10-27T09:39:51.265Z,101960
2017-10-27T09:42:19.448Z,101954
2017-10-27T09:44:47.535Z,101968
2017-10-27T09:47:16.396Z,101971
2017-10-27T09:49:44.705Z,101972
2017-10-27T09:52:13.012Z,101982
2017-10-27T09:54:41.107Z,101990
2017-10-27T09:57:09.208Z,101980
2017-10-27T09:59:37.407Z,101988
2017-10-27T10:02:05.509Z,101996
2017-10-27T10:04:33.628Z,102008
2017-10-27T10:07:01.715Z,102007
2017-10-27T10:09:29.825Z,102021
2017-10-27T10:11:57.942Z,102008
2017-10-27T10:14:26.077Z,102011
2017-10-27T10:16:54.296Z,102009
2017-10-27T10:19:22.390Z,102003
2017-10-27T10:21:51.240Z,102004
2017-10-27T10:24:19.355Z,102003
2017-10-27T10:26:48.650Z,102012
2017-10-27T10:29:16.897Z,102005
2017-10-27T10:31:45.065Z,102006
2017-10-27T10:34:13.175Z,102002
2017-10-27T10:36:42.050Z,102015
2017-10-27T10:39:10.151Z,102017
2017-10-27T10:41:38.534Z,102027
2017-10-27T10:44:06.727Z,102022
2017-10-27T10:46:34.836Z,102029
2017-10-27T10:49:03.209Z,102032
2017-10-27T10:51:31.298Z,102030
2017-10-27T10:53:59.379Z,102029
2017-10-27T10:56:28.263Z,102030
2017-10-27T10:58:57.122Z,102039
2017-10-27T11:01:25.229Z,102034
2017-10-27T11:03:54.080Z,102048
2017-10-27T11:06:22.396Z,102038
2017-10-27T11:08:50.472Z,102032
2017-10-27T11:11:18.575Z,102033
2017-10-27T11:13:46.707Z,102033
2017-10-27T11:16:14.895Z,102018
2017-10-27T11:18:43.771Z,102024
2017-10-27T11:21:11.876Z,102023
2017-10-27T11:23:39.975Z,102022
2017-10-27T11:26:08.076Z,102017
2017-10-27T11:28:36.193Z,102023
2017-10-27T11:31:04.277Z,102016
2017-10-27T11:33:32.360Z,102030
2017-10-27T11:36:01.250Z,102035
2017-10-27T11:38:30.092Z,102050
2017-10-27T11:40:58.937Z,102059
2017-10-27T11:43:27.033Z,102052
2017-10-27T11:45:55.114Z,102048
2017-10-27T11:48:23.736Z,102045
2017-10-27T11:50:51.831Z,102047
2017-10-27T11:53:19.969Z,102052
2017-10-27T11:55:48.816Z,102049
2017-10-27T11:58:17.677Z,102054
2017-10-27T12:00:45.789Z,102053
2017-10-27T12:03:13.881Z,102053
2017-10-27T12:05:41.959Z,102048
2017-10-27T12:08:10.836Z,102045
2017-10-27T12:10:38.927Z,102051
2017-10-27T12:13:07.812Z,102048
2017-10-27T12:15:35.912Z,102045
2017-10-27T12:18:04.032Z,102041
2017-10-27T12:20:32.181Z,102046
2017-10-27T12:23:00.290Z,102043
2017-10-27T12:25:28.387Z,102042
2017-10-27T12:27:56.512Z,102046
2017-10-27T12:30:24.587Z,102049
2017-10-27T12:32:52.684Z,102049
2017-10-27T12:35:20.793Z,102039
2017-10-27T12:37:48.885Z,102044
2017-10-27T12:40:16.996Z,102055
2017-10-27T12:42:45.100Z,102061
2017-10-27T12:45:13.200Z,102059
2017-10-27T12:47:41.294Z,102060
2017-10-27T12:50:09.421Z,102049
2017-10-27T12:52:37.507Z,102068
2017-10-27T12:55:05.835Z,102063
2017-10-27T12:57:34.472Z,102061
2017-10-27T13:00:02.580Z,102096
2017-10-27T13:02:30.701Z,102063
2017-10-27T13:04:58.796Z,102064
2017-10-27T13:07:26.880Z,102075
2017-10-27T13:09:54.985Z,102069
2017-10-27T13:12:23.079Z,102067
2017-10-27T13:14:51.998Z,102074
2017-10-27T13:17:20.155Z,102068
2017-10-27T13:19:48.280Z,102059
2017-10-27T13:22:16.373Z,102065
2017-10-27T13:24:44.509Z,102056
2017-10-27T13:27:12.612Z,102064
2017-10-27T13:29:40.683Z,102056
2017-10-27T13:32:08.797Z,102058
2017-10-27T13:34:36.876Z,102051
2017-10-27T13:37:04.999Z,102052
2017-10-27T13:39:33.085Z,102067
2017-10-27T13:42:01.184Z,102066
2017-10-27T13:44:29.263Z,102072
2017-10-27T13:46:57.360Z,102081
2017-10-27T13:49:25.462Z,102080
2017-10-27T13:51:53.562Z,102092
2017-10-27T13:54:22.479Z,102095
2017-10-27T13:56:50.554Z,102097
2017-10-27T13:59:18.801Z,102104
2017-10-27T14:01:47.686Z,102100
2017-10-27T14:04:16.581Z,102114
2017-10-27T14:06:45.447Z,102111
2017-10-27T14:09:13.604Z,102119
2017-10-27T14:11:41.813Z,102103
2017-10-27T14:14:10.704Z,102108
2017-10-27T14:16:39.596Z,102105
2017-10-27T14:19:07.748Z,102118
2017-10-27T14:21:35.847Z,102125
2017-10-27T14:24:04.771Z,102129
2017-10-27T14:26:33.000Z,102127
2017-10-27T14:29:01.181Z,102139
2017-10-27T14:31:30.056Z,102136
2017-10-27T14:33:58.275Z,102146
2017-10-27T14:36:26.436Z,102145
2017-10-27T14:38:56.416Z,102140
2017-10-27T14:41:24.495Z,102146
2017-10-27T14:43:52.577Z,102152
2017-10-27T14:46:21.596Z,102135
2017-10-27T14:48:49.722Z,102155
2017-10-27T14:51:17.812Z,102163
2017-10-27T14:53:46.692Z,102158
2017-10-27T14:56:15.294Z,102154
2017-10-27T14:58:43.464Z,102171
2017-10-27T15:01:11.672Z,102162
2017-10-27T15:03:39.800Z,102169
2017-10-27T15:06:07.965Z,102172
2017-10-27T15:08:36.084Z,102194
2017-10-27T15:11:04.176Z,102194
2017-10-27T15:13:32.247Z,102192
2017-10-27T15:16:00.359Z,102198
2017-10-27T15:18:28.587Z,102210
2017-10-27T15:20:56.964Z,102190
2017-10-27T15:23:25.052Z,102191
2017-10-27T15:25:53.216Z,102202
2017-10-27T15:28:22.230Z,102203
2017-10-27T15:30:50.504Z,102198
2017-10-27T15:33:19.628Z,102206
2017-10-27T15:35:47.752Z,102188
2017-10-27T15:38:16.074Z,102191
2017-10-27T15:40:44.256Z,102189
2017-10-27T15:43:12.629Z,102197
2017-10-27T15:45:40.806Z,102201
2017-10-27T15:48:08.924Z,102197
2017-10-27T15:50:37.036Z,102191
2017-10-27T15:53:05.293Z,102202
2017-10-27T15:55:33.377Z,102201
2017-10-27T15:58:01.580Z,102196
2017-10-27T16:00:29.708Z,102192
2017-10-27T16:02:57.797Z,102193
2017-10-27T16:05:26.037Z,102196
2017-10-27T16:07:54.136Z,102196
2017-10-27T16:10:22.358Z,102198
2017-10-27T16:12:51.321Z,102206
2017-10-27T16:15:19.517Z,102207
2017-10-27T16:17:48.468Z,102208
2017-10-27T16:20:16.613Z,102202
2017-10-27T16:22:44.759Z,102205
2017-10-27T16:25:13.641Z,102203
2017-10-27T16:27:41.904Z,102213
2017-10-27T16:30:09.998Z,102200
2017-10-27T16:32:38.915Z,102214
2017-10-27T16:35:07.031Z,102204
2017-10-27T16:37:35.222Z,102201
2017-10-27T16:40:03.337Z,102205
2017-10-27T16:42:31.431Z,102197
2017-10-27T16:44:59.545Z,102194
2017-10-27T16:47:27.793Z,102212
2017-10-27T16:49:55.908Z,102211
2017-10-27T16:52:24.805Z,102208
2017-10-27T16:54:53.700Z,102213
2017-10-27T16:57:21.864Z,102213
2017-10-27T16:59:50.028Z,102214
2017-10-27T17:02:18.304Z,102201
2017-10-27T17:04:46.481Z,102204
2017-10-27T17:07:15.392Z,102205
2017-10-27T17:09:43.477Z,102211
2017-10-27T17:12:11.628Z,102222
2017-10-27T17:14:39.929Z,102213
2017-10-27T17:17:08.024Z,102218
2017-10-27T17:19:36.133Z,102219
2017-10-27T17:22:04.248Z,102229
2017-10-27T17:24:32.421Z,102235
2017-10-27T17:27:00.587Z,102241
2017-10-27T17:29:29.675Z,102247
2017-10-27T17:31:57.866Z,102255
2017-10-27T17:34:25.993Z,102269
2017-10-27T17:36:54.085Z,102269
2017-10-27T17:39:23.005Z,102274
2017-10-27T17:41:51.884Z,102279
2017-10-27T17:44:20.119Z,102278
2017-10-27T17:46:48.229Z,102284
2017-10-27T17:49:17.137Z,102277
2017-10-27T17:51:46.040Z,102270
2017-10-27T17:54:15.371Z,102267
2017-10-27T17:56:43.601Z,102272
2017-10-27T17:59:11.739Z,102257
2017-10-27T18:01:39.980Z,102256
2017-10-27T18:04:08.219Z,102270
2017-10-27T18:06:36.705Z,102276
2017-10-27T18:09:04.799Z,102281
2017-10-27T18:11:33.552Z,102276
2017-10-27T18:14:01.707Z,102286
2017-10-27T18:16:30.739Z,102285
2017-10-27T18:18:58.915Z,102288
2017-10-27T18:21:27.000Z,102297
2017-10-27T18:23:55.288Z,102294
2017-10-27T18:26:23.501Z,102294
2017-10-27T18:28:52.397Z,102298
2017-10-27T18:31:20.574Z,102301
2017-10-27T18:33:49.645Z,102296
2017-10-27T18:36:17.770Z,102301
2017-10-27T18:38:45.932Z,102300
2017-10-27T18:41:14.023Z,102310
2017-10-27T18:43:42.134Z,102298
2017-10-27T18:46:10.401Z,102305
2017-10-27T18:48:38.504Z,102295
2017-10-27T18:51:06.675Z,102297
2017-10-27T18:53:34.983Z,102293
2017-10-27T18:56:03.132Z,102302
2017-10-27T18:58:32.016Z,102299
2017-10-27T19:01:00.904Z,102303
2017-10-27T19:03:29.083Z,102316
2017-10-27T19:05:57.248Z,102310
2017-10-27T19:08:25.365Z,102310
2017-10-27T19:10:53.453Z,102299
2017-10-27T19:13:21.553Z,102303
2017-10-27T19:15:49.812Z,102306
2017-10-27T19:18:18.023Z,102309
2017-10-27T19:20:46.932Z,102306
2017-10-27T19:23:15.024Z,102301
2017-10-27T19:25:43.187Z,102303
2017-10-27T19:28:11.326Z,102313
2017-10-27T19:30:39.407Z,102323
2017-10-27T19:33:08.768Z,102308
2017-10-27T19:35:36.877Z,102307
2017-10-27T19:38:05.085Z,102307
2017-10-27T19:40:33.818Z,102313
2017-10-27T19:43:02.748Z,102318
2017-10-27T19:45:31.872Z,102310
2017-10-27T19:48:00.528Z,102311
2017-10-27T19:50:29.423Z,102315
2017-10-27T19:52:58.473Z,102309
2017-10-27T19:55:26.612Z,102294
2017-10-27T19:57:54.952Z,102304
2017-10-27T20:00:23.032Z,102301
2017-10-27T20:02:51.197Z,102308
2017-10-27T20:05:19.324Z,102307
2017-10-27T20:07:48.163Z,102310
2017-10-27T20:10:17.043Z,102307
2017-10-27T20:12:45.150Z,102314
2017-10-27T20:15:13.253Z,102311
2017-10-27T20:17:41.344Z,102306
2017-10-27T20:20:09.429Z,102317
2017-10-27T20:22:37.546Z,102315
2017-10-27T20:25:05.641Z,102308
2017-10-27T20:27:33.740Z,102301
2017-10-27T20:30:01.861Z,102299
2017-10-27T20:32:29.958Z,102297
2017-10-27T20:34:58.101Z,102293
2017-10-27T20:37:26.220Z,102300
2017-10-27T20:39:54.342Z,102295
2017-10-27T20:42:22.433Z,102300
2017-10-27T20:44:50.569Z,102301
2017-10-27T20:47:18.692Z,102304
2017-10-27T20:49:46.791Z,102294
2017-10-27T20:52:14.896Z,102291
2017-10-27T20:54:43.758Z,102290
2017-10-27T20:57:11.896Z,102284
2017-10-27T20:59:40.032Z,102297
2017-10-27T21:02:08.916Z,102297
2017-10-27T21:04:37.820Z,102292
2017-10-27T21:07:06.665Z,102299
2017-10-27T21:09:34.832Z,102292
2017-10-27T21:12:02.955Z,102285
2017-10-27T21:14:31.815Z,102292
2017-10-27T21:17:00.372Z,102284
2017-10-27T21:19:28.462Z,102283
2017-10-27T21:21:57.576Z,102278
2017-10-27T21:24:25.677Z,102284
2017-10-27T21:26:53.803Z,102285
2017-10-27T21:29:21.948Z,102282
2017-10-27T21:31:50.044Z,102280
2017-10-27T21:34:18.296Z,102279
2017-10-27T21:36:46.396Z,102288
2017-10-27T21:39:15.356Z,102281
2017-10-27T21:41:43.504Z,102278
2017-10-27T21:44:11.588Z,102284
2017-10-27T21:46:39.697Z,102282
2017-10-27T21:49:07.784Z,102290
2017-10-27T21:51:35.884Z,102272
2017-10-27T21:54:04.775Z,102271
2017-10-27T21:56:32.892Z,102265
2017-10-27T21:59:00.981Z,102273
2017-10-27T22:01:29.069Z,102264
2017-10-27T22:03:57.187Z,102262
2017-10-27T22:06:25.312Z,102254
2017-10-27T22:08:53.428Z,102250
2017-10-27T22:11:22.044Z,102251
2017-10-27T22:13:50.133Z,102254
2017-10-27T22:16:18.288Z,102256
2017-10-27T22:18:46.417Z,102254
2017-10-27T22:21:15.296Z,102250
2017-10-27T22:23:43.390Z,102239
2017-10-27T22:26:12.264Z,102234
2017-10-27T22:28:41.132Z,102241
2017-10-27T22:31:09.567Z,102242
2017-10-27T22:33:37.680Z,102233
2017-10-27T22:36:05.787Z,102235
2017-10-27T22:38:34.694Z,102240
2017-10-27T22:41:04.579Z,102229
2017-10-27T22:43:33.440Z,102220
2017-10-27T22:46:01.564Z,102216
2017-10-27T22:48:29.676Z,102213
2017-10-27T22:50:58.341Z,102210
2017-10-27T22:53:26.422Z,102202
2017-10-27T22:55:54.507Z,102216
2017-10-27T22:58:23.536Z,102210
2017-10-27T23:00:51.629Z,102219
2017-10-27T23:03:19.723Z,102206
2017-10-27T23:05:53.613Z,102205
2017-10-27T23:08:21.780Z,102206
2017-10-27T23:10:50.620Z,102194
2017-10-27T23:13:18.725Z,102203
2017-10-27T23:15:46.809Z,102190
2017-10-27T23:18:15.687Z,102192
2017-10-27T23:20:43.778Z,102191
2017-10-27T23:23:12.620Z,102189
2017-10-27T23:25:40.769Z,102186
2017-10-27T23:28:09.049Z,102170
2017-10-27T23:30:37.187Z,102170
2017-10-27T23:33:06.059Z,102173
2017-10-27T23:35:34.217Z,102174
2017-10-27T23:38:02.311Z,102172
2017-10-27T23:40:30.402Z,102167
2017-10-27T23:42:58.516Z,102177
2017-10-27T23:45:26.612Z,102179
2017-10-27T23:47:54.696Z,102174
2017-10-27T23:50:22.792Z,102168
2017-10-27T23:52:50.875Z,102171
2017-10-27T23:55:18.970Z,102164
2017-10-27T23:57:47.084Z,102156
